Time;durP1;ratioP1;P1;durP2;ratioP2;P2;SDS_P1;SDS_P2;PMS_P1;PMS_P2;Temp;Humidity;BMP_temperature;BMP_pressure;BME280_temperature;BME280_humidity;BME280_pressure;Samples;Min_cycle;Max_cycle;Signal;HPM_P1;HPM_P2
2022/05/25 00:01:37;;;;;;;8.32;5.28;;;;;;;;;;5055011;28;20104;-75
2022/05/25 00:04:04;;;;;;;8.68;5.40;;;;;;;;;;5054909;28;20112;-74
2022/05/25 00:06:30;;;;;;;8.93;5.20;;;;;;;;;;5054919;28;20032;-74
2022/05/25 00:08:56;;;;;;;8.45;5.10;;;;;;;;;;5054810;28;20044;-74
2022/05/25 00:11:23;;;;;;;9.85;5.57;;;;;;;;;;5054555;28;20055;-75
2022/05/25 00:13:49;;;;;;;8.82;5.82;;;;;;;;;;5054656;28;20060;-75
2022/05/25 00:16:15;;;;;;;10.10;6.13;;;;;;;;;;5053232;28;20509;-75
2022/05/25 00:19:58;;;;;;;9.82;5.63;;;;;;;;;;5054459;28;20429;-75
2022/05/25 00:21:27;;;;;;;11.32;5.88;;;;;;;;;;5054396;28;20483;-75
2022/05/25 00:23:53;;;;;;;15.38;6.50;;;;;;;;;;5054551;28;20057;-74
2022/05/25 00:26:19;;;;;;;10.43;6.22;;;;;;;;;;5054384;28;20064;-75
2022/05/25 00:28:45;;;;;;;9.13;5.45;;;;;;;;;;5054515;28;20032;-75
2022/05/25 00:31:12;;;;;;;9.55;6.40;;;;;;;;;;5054388;28;20029;-75
2022/05/25 00:33:38;;;;;;;14.27;7.30;;;;;;;;;;5054458;28;20025;-74
2022/05/25 00:36:04;;;;;;;9.98;5.93;;;;;;;;;;5054339;28;20067;-75
2022/05/25 00:38:30;;;;;;;12.15;6.75;;;;;;;;;;5053551;28;20090;-74
2022/05/25 00:40:57;;;;;;;10.57;6.43;;;;;;;;;;5054143;28;20021;-74
2022/05/25 00:43:23;;;;;;;13.57;6.32;;;;;;;;;;5054275;28;20106;-74
2022/05/25 00:46:01;;;;;;;13.15;7.35;;;;;;;;;;5054115;28;20120;-74
2022/05/25 00:48:33;;;;;;;11.30;6.75;;;;;;;;;;5054085;28;20021;-74
2022/05/25 00:51:12;;;;;;;12.40;7.85;;;;;;;;;;5054133;28;20052;-74
2022/05/25 00:53:43;;;;;;;12.80;7.60;;;;;;;;;;5046949;28;20014;-75
2022/05/25 00:56:10;;;;;;;12.55;7.63;;;;;;;;;;5034090;28;20026;-75
2022/05/25 00:58:38;;;;;;;13.05;7.75;;;;;;;;;;5034158;28;20387;-74
2022/05/25 01:01:04;;;;;;;15.77;8.68;;;;;;;;;;5034211;28;20037;-75
2022/05/25 01:03:30;;;;;;;13.43;8.30;;;;;;;;;;5043645;28;20028;-74
2022/05/25 01:05:56;;;;;;;13.57;7.97;;;;;;;;;;5053841;28;20044;-74
2022/05/25 01:08:33;;;;;;;14.25;8.50;;;;;;;;;;5053834;28;20476;-74
2022/05/25 01:11:18;;;;;;;12.48;8.10;;;;;;;;;;5053451;28;20076;-74
2022/05/25 01:14:00;;;;;;;12.57;8.10;;;;;;;;;;5053728;28;20021;-74
2022/05/25 01:16:47;;;;;;;13.77;8.70;;;;;;;;;;5053803;28;20040;-74
2022/05/25 01:19:25;;;;;;;11.77;7.38;;;;;;;;;;5053567;28;20032;-74
2022/05/25 01:21:55;;;;;;;13.90;8.60;;;;;;;;;;5053427;28;20032;-74
2022/05/25 01:24:50;;;;;;;16.67;8.90;;;;;;;;;;5053607;28;20099;-74
2022/05/25 01:27:26;;;;;;;12.52;8.60;;;;;;;;;;5052865;28;20044;-74
2022/05/25 01:30:03;;;;;;;17.85;9.20;;;;;;;;;;5051212;28;20036;-74
2022/05/25 01:32:33;;;;;;;13.98;9.20;;;;;;;;;;5046958;28;20039;-75
2022/05/25 01:35:12;;;;;;;15.57;10.02;;;;;;;;;;5052458;28;20033;-75
2022/05/25 01:37:40;;;;;;;21.15;11.05;;;;;;;;;;5052184;28;20095;-74
2022/05/25 01:40:10;;;;;;;16.92;10.25;;;;;;;;;;5052362;28;20029;-74
2022/05/25 01:42:39;;;;;;;18.17;10.45;;;;;;;;;;5050539;28;20430;-74
2022/05/25 01:45:07;;;;;;;18.17;10.20;;;;;;;;;;5052208;28;20029;-74
2022/05/25 01:47:34;;;;;;;16.77;10.82;;;;;;;;;;5052164;28;20029;-74
2022/05/25 01:50:21;;;;;;;17.20;9.88;;;;;;;;;;5050693;28;20036;-74
2022/05/25 01:52:54;;;;;;;18.15;10.65;;;;;;;;;;5051990;28;20036;-74
2022/05/25 01:55:25;;;;;;;17.55;9.65;;;;;;;;;;5051968;28;20021;-74
2022/05/25 01:57:55;;;;;;;16.88;10.48;;;;;;;;;;5051751;28;20025;-74
2022/05/25 02:00:50;;;;;;;16.70;10.48;;;;;;;;;;5052174;28;20067;-74
2022/05/25 02:06:15;;;;;;;18.85;10.90;;;;;;;;;;5010519;28;20032;-75
2022/05/25 02:08:59;;;;;;;18.90;10.07;;;;;;;;;;5010022;28;20117;-74
2022/05/25 02:11:46;;;;;;;22.27;11.10;;;;;;;;;;5009961;28;20104;-74
2022/05/25 02:14:12;;;;;;;17.90;10.57;;;;;;;;;;5009218;28;20439;-74
2022/05/25 02:16:41;;;;;;;18.92;10.23;;;;;;;;;;5009428;28;20461;-74
2022/05/25 02:19:23;;;;;;;19.58;10.35;;;;;;;;;;5009171;28;20508;-75
2022/05/25 02:21:54;;;;;;;20.70;10.63;;;;;;;;;;5009302;28;20025;-74
2022/05/25 02:24:43;;;;;;;16.75;10.18;;;;;;;;;;5009299;28;20499;-74
2022/05/25 02:27:26;;;;;;;17.25;10.23;;;;;;;;;;4950677;29;20549;-74
2022/05/25 02:29:56;;;;;;;17.55;10.68;;;;;;;;;;4951026;29;20039;-74
2022/05/25 02:32:24;;;;;;;21.10;11.00;;;;;;;;;;4951887;29;20054;-74
2022/05/25 02:34:51;;;;;;;18.55;10.77;;;;;;;;;;4952122;29;20118;-74
2022/05/25 02:37:20;;;;;;;19.23;10.75;;;;;;;;;;4951992;29;20027;-73
2022/05/25 02:39:46;;;;;;;26.80;12.00;;;;;;;;;;4973010;28;20030;-74
2022/05/25 02:42:16;;;;;;;17.70;11.07;;;;;;;;;;4990639;28;20023;-74
2022/05/25 02:44:43;;;;;;;19.65;11.23;;;;;;;;;;4990495;28;20031;-74
2022/05/25 02:47:09;;;;;;;18.63;11.02;;;;;;;;;;4990593;28;20102;-74
2022/05/25 02:49:35;;;;;;;16.33;10.00;;;;;;;;;;4990439;28;20420;-74
2022/05/25 02:52:01;;;;;;;18.02;11.35;;;;;;;;;;4974023;28;20513;-74
2022/05/25 02:54:27;;;;;;;22.25;11.13;;;;;;;;;;4990313;28;20542;-74
2022/05/25 02:56:53;;;;;;;22.20;11.88;;;;;;;;;;4990199;28;20322;-77
2022/05/25 02:59:19;;;;;;;16.90;10.38;;;;;;;;;;4990343;28;20049;-75
2022/05/25 03:01:46;;;;;;;16.02;10.10;;;;;;;;;;4989992;28;20496;-77
2022/05/25 03:04:12;;;;;;;18.17;10.63;;;;;;;;;;5012900;28;20041;-75
2022/05/25 03:06:38;;;;;;;19.40;11.38;;;;;;;;;;5052012;28;20059;-74
2022/05/25 03:09:04;;;;;;;19.65;11.20;;;;;;;;;;5048060;28;20489;-74
2022/05/25 03:11:31;;;;;;;16.23;10.45;;;;;;;;;;5031535;28;20077;-74
2022/05/25 03:13:58;;;;;;;18.88;11.18;;;;;;;;;;5031857;28;20030;-74
2022/05/25 03:16:24;;;;;;;17.83;11.10;;;;;;;;;;5031687;28;20025;-74
2022/05/25 03:18:51;;;;;;;22.05;11.02;;;;;;;;;;5031793;28;20033;-76
2022/05/25 03:21:17;;;;;;;19.17;11.30;;;;;;;;;;5031780;28;20104;-76
2022/05/25 03:23:43;;;;;;;20.58;11.57;;;;;;;;;;5031736;28;20022;-76
2022/05/25 03:26:10;;;;;;;21.27;11.77;;;;;;;;;;5042405;28;20462;-76
2022/05/25 03:28:36;;;;;;;24.58;11.85;;;;;;;;;;5051430;28;20039;-76
2022/05/25 03:31:02;;;;;;;19.55;11.77;;;;;;;;;;5051236;28;20036;-76
2022/05/25 03:33:29;;;;;;;21.77;11.40;;;;;;;;;;5051653;28;20025;-76
2022/05/25 03:35:55;;;;;;;22.08;11.32;;;;;;;;;;5051355;28;20021;-76
2022/05/25 03:38:21;;;;;;;22.42;12.48;;;;;;;;;;5051534;28;20021;-76
2022/05/25 03:40:48;;;;;;;18.38;11.50;;;;;;;;;;5051345;28;20079;-76
2022/05/25 03:43:16;;;;;;;26.00;12.73;;;;;;;;;;5051470;28;20078;-76
2022/05/25 03:45:42;;;;;;;23.20;11.98;;;;;;;;;;5051334;28;20060;-76
2022/05/25 03:48:08;;;;;;;21.30;11.27;;;;;;;;;;5051352;28;20029;-74
2022/05/25 03:50:38;;;;;;;21.25;12.35;;;;;;;;;;5051181;28;20037;-76
2022/05/25 03:53:06;;;;;;;17.63;11.02;;;;;;;;;;5051491;28;20649;-76
2022/05/25 03:55:33;;;;;;;20.63;11.30;;;;;;;;;;5051217;28;20021;-76
2022/05/25 03:57:59;;;;;;;19.25;11.45;;;;;;;;;;5051317;28;20029;-75
2022/05/25 04:00:25;;;;;;;19.70;10.18;;;;;;;;;;5051078;28;20021;-75
2022/05/25 04:02:51;;;;;;;20.20;10.82;;;;;;;;;;5051091;28;20032;-76
2022/05/25 04:05:18;;;;;;;20.58;10.55;;;;;;;;;;5051220;28;20028;-76
2022/05/25 04:07:45;;;;;;;19.48;10.70;;;;;;;;;;5051239;28;20033;-76
2022/05/25 04:10:13;;;;;;;18.50;10.63;;;;;;;;;;5050842;28;20041;-76
2022/05/25 04:12:40;;;;;;;22.73;11.05;;;;;;;;;;5051275;28;20036;-76
2022/05/25 04:15:07;;;;;;;17.63;10.45;;;;;;;;;;5054774;28;20027;-76
2022/05/25 04:17:33;;;;;;;22.30;10.15;;;;;;;;;;5054833;28;20026;-76
2022/05/25 04:19:59;;;;;;;18.92;10.30;;;;;;;;;;5054702;28;20023;-76
2022/05/25 04:22:25;;;;;;;20.15;9.93;;;;;;;;;;5054818;28;20033;-76
2022/05/25 04:24:51;;;;;;;18.95;10.23;;;;;;;;;;5054571;28;20021;-76
2022/05/25 04:27:18;;;;;;;19.85;10.50;;;;;;;;;;5054505;28;20021;-75
2022/05/25 04:29:44;;;;;;;17.17;9.50;;;;;;;;;;5054295;28;20518;-76
2022/05/25 04:32:10;;;;;;;18.20;9.35;;;;;;;;;;5054466;28;20055;-76
2022/05/25 04:34:36;;;;;;;18.08;10.07;;;;;;;;;;5054384;28;20079;-76
2022/05/25 04:39:47;;;;;;;18.38;9.20;;;;;;;;;;5054416;28;20246;-76
2022/05/25 04:42:13;;;;;;;16.45;9.55;;;;;;;;;;5054306;28;20115;-76
2022/05/25 04:44:39;;;;;;;18.50;9.82;;;;;;;;;;5054311;28;20503;-76
2022/05/25 04:47:09;;;;;;;18.55;9.10;;;;;;;;;;5054272;28;20017;-75
2022/05/25 04:49:35;;;;;;;16.13;8.95;;;;;;;;;;5054306;28;20025;-76
2022/05/25 04:52:02;;;;;;;17.80;9.38;;;;;;;;;;5054127;28;20033;-76
2022/05/25 04:54:28;;;;;;;16.23;8.88;;;;;;;;;;5054048;28;20032;-76
2022/05/25 04:59:39;;;;;;;14.50;8.85;;;;;;;;;;5053986;28;20513;-75
2022/05/25 05:02:05;;;;;;;17.67;8.90;;;;;;;;;;5053901;28;20375;-76
2022/05/25 05:04:31;;;;;;;16.90;9.55;;;;;;;;;;5053878;28;20454;-76
2022/05/25 05:06:57;;;;;;;18.58;10.40;;;;;;;;;;5053918;28;20029;-76
2022/05/25 05:09:23;;;;;;;21.60;9.43;;;;;;;;;;5053864;28;20033;-76
2022/05/25 05:11:49;;;;;;;18.15;9.27;;;;;;;;;;5053728;28;20053;-76
2022/05/25 05:14:15;;;;;;;17.50;9.60;;;;;;;;;;5053719;28;20032;-76
2022/05/25 05:16:42;;;;;;;20.23;8.82;;;;;;;;;;5053733;28;20025;-75
2022/05/25 05:19:08;;;;;;;16.45;9.60;;;;;;;;;;5053624;28;20025;-76
2022/05/25 05:21:34;;;;;;;24.77;9.88;;;;;;;;;;5053656;28;20025;-75
2022/05/25 05:24:01;;;;;;;16.05;10.23;;;;;;;;;;5053262;28;20032;-76
2022/05/25 05:26:27;;;;;;;16.75;9.93;;;;;;;;;;5053314;28;20037;-76
2022/05/25 05:28:56;;;;;;;23.50;9.73;;;;;;;;;;5053193;28;20387;-76
2022/05/25 05:31:22;;;;;;;14.52;9.15;;;;;;;;;;5053274;28;20060;-76
2022/05/25 05:33:48;;;;;;;16.25;9.27;;;;;;;;;;5053515;28;20017;-76
2022/05/25 05:36:19;;;;;;;17.45;9.60;;;;;;;;;;5053543;28;20040;-75
2022/05/25 05:38:49;;;;;;;19.60;8.98;;;;;;;;;;5053471;28;20028;-76
2022/05/25 05:41:15;;;;;;;17.67;9.55;;;;;;;;;;5053352;28;20025;-76
2022/05/25 05:43:41;;;;;;;25.40;9.82;;;;;;;;;;5053335;28;20024;-75
2022/05/25 05:46:08;;;;;;;15.40;9.32;;;;;;;;;;5053181;28;20048;-76
2022/05/25 05:48:35;;;;;;;18.05;9.75;;;;;;;;;;5053299;28;20028;-75
2022/05/25 05:51:04;;;;;;;21.55;9.80;;;;;;;;;;5053055;28;20025;-75
2022/05/25 05:53:30;;;;;;;15.75;8.40;;;;;;;;;;5053155;28;20041;-75
2022/05/25 05:55:57;;;;;;;22.70;9.50;;;;;;;;;;5053070;28;20368;-75
2022/05/25 05:58:23;;;;;;;15.38;9.07;;;;;;;;;;5050586;28;20086;-75
2022/05/25 06:00:50;;;;;;;21.80;8.57;;;;;;;;;;5033063;28;20108;-75
2022/05/25 06:03:16;;;;;;;15.05;8.30;;;;;;;;;;5038292;28;20021;-75
2022/05/25 06:05:43;;;;;;;13.07;8.38;;;;;;;;;;5052826;28;20028;-75
2022/05/25 06:08:14;;;;;;;13.30;7.70;;;;;;;;;;5052848;28;20510;-75
2022/05/25 06:10:40;;;;;;;15.35;7.50;;;;;;;;;;5052518;28;20049;-75
2022/05/25 06:13:07;;;;;;;15.50;7.97;;;;;;;;;;5052787;28;20036;-75
2022/05/25 06:21:04;;;;;;;18.35;8.35;;;;;;;;;;5052569;28;20044;-76
2022/05/25 06:23:30;;;;;;;16.00;7.93;;;;;;;;;;5052615;28;20033;-75
2022/05/25 06:25:56;;;;;;;16.98;7.95;;;;;;;;;;5052158;28;20024;-76
2022/05/25 06:28:22;;;;;;;15.77;8.18;;;;;;;;;;5052339;28;20021;-75
2022/05/25 06:30:48;;;;;;;18.92;7.72;;;;;;;;;;5052069;28;20039;-75
2022/05/25 06:33:14;;;;;;;18.40;7.40;;;;;;;;;;5052457;28;20328;-75
2022/05/25 06:35:40;;;;;;;18.17;8.05;;;;;;;;;;5051741;28;20025;-76
2022/05/25 06:38:06;;;;;;;15.15;7.40;;;;;;;;;;5052373;28;20025;-75
2022/05/25 06:40:32;;;;;;;12.85;7.20;;;;;;;;;;5052271;28;20021;-75
2022/05/25 06:42:58;;;;;;;15.65;7.47;;;;;;;;;;5052258;28;20048;-75
2022/05/25 06:45:25;;;;;;;13.88;6.72;;;;;;;;;;5052115;28;20443;-75
2022/05/25 06:47:51;;;;;;;14.13;7.28;;;;;;;;;;5052120;28;20036;-75
2022/05/25 06:50:17;;;;;;;14.40;7.93;;;;;;;;;;5051989;28;20467;-75
2022/05/25 06:52:43;;;;;;;15.10;7.10;;;;;;;;;;5052146;28;20490;-75
2022/05/25 06:55:09;;;;;;;14.15;7.13;;;;;;;;;;5052106;28;20440;-76
2022/05/25 06:57:35;;;;;;;15.85;6.35;;;;;;;;;;5051945;28;20032;-75
2022/05/25 07:00:02;;;;;;;12.90;6.55;;;;;;;;;;5051885;28;20104;-76
2022/05/25 07:02:28;;;;;;;15.38;6.90;;;;;;;;;;5051773;28;20017;-76
2022/05/25 07:04:54;;;;;;;14.80;6.78;;;;;;;;;;5051789;28;20021;-76
2022/05/25 07:07:20;;;;;;;17.90;7.25;;;;;;;;;;5052056;28;20036;-75
2022/05/25 07:09:46;;;;;;;11.98;5.75;;;;;;;;;;5051617;28;20098;-75
2022/05/25 07:12:12;;;;;;;14.48;6.38;;;;;;;;;;5051762;28;20491;-75
2022/05/25 07:14:39;;;;;;;14.30;6.95;;;;;;;;;;5051701;28;20025;-75
2022/05/25 07:17:05;;;;;;;10.98;6.38;;;;;;;;;;5051752;28;20545;-76
2022/05/25 07:19:31;;;;;;;16.17;6.60;;;;;;;;;;5051710;28;20035;-75
2022/05/25 07:21:57;;;;;;;15.32;6.50;;;;;;;;;;5051692;28;20032;-75
2022/05/25 07:24:23;;;;;;;11.60;6.07;;;;;;;;;;5051707;28;20031;-75
2022/05/25 07:26:49;;;;;;;12.30;6.18;;;;;;;;;;5051528;28;20087;-75
2022/05/25 07:29:16;;;;;;;11.32;5.95;;;;;;;;;;5051348;28;20094;-75
2022/05/25 07:31:55;;;;;;;12.95;6.57;;;;;;;;;;5051417;28;20433;-75
2022/05/25 07:34:23;;;;;;;13.77;7.07;;;;;;;;;;5051589;28;20044;-75
2022/05/25 07:36:54;;;;;;;13.30;7.45;;;;;;;;;;5051630;28;20033;-75
2022/05/25 07:39:21;;;;;;;13.85;7.07;;;;;;;;;;5051553;28;20029;-75
2022/05/25 07:41:50;;;;;;;10.80;7.47;;;;;;;;;;5051461;28;20108;-76
2022/05/25 07:44:19;;;;;;;14.75;7.70;;;;;;;;;;5051462;28;20116;-75
2022/05/25 07:46:45;;;;;;;11.10;7.18;;;;;;;;;;5051789;28;20121;-75
2022/05/25 07:49:11;;;;;;;15.23;8.23;;;;;;;;;;5055508;28;20044;-75
2022/05/25 07:51:37;;;;;;;13.63;7.72;;;;;;;;;;5055367;28;20039;-76
2022/05/25 07:54:03;;;;;;;13.05;7.25;;;;;;;;;;5055345;28;20383;-75
2022/05/25 07:56:31;;;;;;;13.85;7.85;;;;;;;;;;5055294;28;20379;-75
2022/05/25 07:58:57;;;;;;;12.52;7.65;;;;;;;;;;5055149;28;20021;-76
2022/05/25 08:06:55;;;;;;;14.32;7.85;;;;;;;;;;5055232;28;20091;-75
2022/05/25 08:09:21;;;;;;;14.50;7.53;;;;;;;;;;5055098;28;20032;-76
2022/05/25 08:11:47;;;;;;;12.40;7.32;;;;;;;;;;5054828;28;20059;-76
2022/05/25 08:14:14;;;;;;;10.85;6.72;;;;;;;;;;5055062;28;20456;-76
2022/05/25 08:16:40;;;;;;;16.25;6.82;;;;;;;;;;5054943;28;20033;-76
2022/05/25 08:19:06;;;;;;;12.90;7.40;;;;;;;;;;5054980;28;20021;-75
2022/05/25 08:21:32;;;;;;;12.60;6.65;;;;;;;;;;5054887;28;20100;-75
2022/05/25 08:23:58;;;;;;;15.48;7.82;;;;;;;;;;5054783;28;20021;-76
2022/05/25 08:26:24;;;;;;;13.88;7.50;;;;;;;;;;5054607;28;20376;-76
2022/05/25 08:28:51;;;;;;;11.60;7.75;;;;;;;;;;5054324;28;20418;-75
2022/05/25 08:31:17;;;;;;;14.10;7.68;;;;;;;;;;5054411;28;20051;-75
2022/05/25 08:33:43;;;;;;;15.15;8.77;;;;;;;;;;5054668;28;20542;-76
2022/05/25 08:36:10;;;;;;;11.98;8.55;;;;;;;;;;5054557;28;20688;-76
2022/05/25 08:38:36;;;;;;;14.55;8.43;;;;;;;;;;5054568;28;20052;-76
2022/05/25 08:41:02;;;;;;;14.05;8.23;;;;;;;;;;5054356;28;20037;-76
2022/05/25 08:43:40;;;;;;;15.27;9.85;;;;;;;;;;5054625;28;20083;-76
2022/05/25 08:46:07;;;;;;;15.68;10.52;;;;;;;;;;5052876;28;20336;-75
2022/05/25 08:48:34;;;;;;;15.30;9.25;;;;;;;;;;5054450;28;20056;-75
2022/05/25 08:51:05;;;;;;;14.63;9.73;;;;;;;;;;5054230;28;20025;-75
2022/05/25 08:53:33;;;;;;;16.38;10.05;;;;;;;;;;5054402;28;20025;-75
2022/05/25 08:55:59;;;;;;;17.08;9.88;;;;;;;;;;5054183;28;20056;-76
2022/05/25 08:58:28;;;;;;;16.55;9.63;;;;;;;;;;5053793;28;20036;-75
2022/05/25 09:00:54;;;;;;;17.60;9.75;;;;;;;;;;5053844;28;20037;-76
2022/05/25 09:03:29;;;;;;;16.42;10.25;;;;;;;;;;5053993;28;20527;-76
2022/05/25 09:06:06;;;;;;;17.02;10.75;;;;;;;;;;5053997;28;20555;-76
2022/05/25 09:08:46;;;;;;;18.15;11.07;;;;;;;;;;5054082;28;20024;-76
2022/05/25 09:11:17;;;;;;;18.27;11.77;;;;;;;;;;5053568;28;20051;-76
2022/05/25 09:13:47;;;;;;;22.03;11.87;;;;;;;;;;5053954;28;20352;-76
2022/05/25 09:16:18;;;;;;;19.60;12.40;;;;;;;;;;5053812;28;20036;-76
2022/05/25 09:18:48;;;;;;;18.33;11.88;;;;;;;;;;5053739;28;20483;-76
2022/05/25 09:21:16;;;;;;;19.83;11.75;;;;;;;;;;5053869;28;20025;-76
2022/05/25 09:23:42;;;;;;;22.60;12.77;;;;;;;;;;5053731;28;20079;-76
2022/05/25 09:26:08;;;;;;;15.75;9.90;;;;;;;;;;5053318;28;20033;-75
2022/05/25 09:28:37;;;;;;;21.35;11.38;;;;;;;;;;5053389;28;20024;-76
2022/05/25 09:31:03;;;;;;;21.13;10.98;;;;;;;;;;5051750;28;20036;-76
2022/05/25 09:33:38;;;;;;;16.50;10.30;;;;;;;;;;5053608;28;20609;-76
2022/05/25 09:36:09;;;;;;;19.25;11.82;;;;;;;;;;5052016;28;20036;-76
2022/05/25 09:38:42;;;;;;;18.85;9.95;;;;;;;;;;5053492;28;20538;-76
2022/05/25 09:41:10;;;;;;;14.93;9.65;;;;;;;;;;5053195;28;20028;-75
2022/05/25 09:43:36;;;;;;;15.50;10.20;;;;;;;;;;5053448;28;20412;-75
2022/05/25 09:46:08;;;;;;;16.40;9.80;;;;;;;;;;5053115;28;20060;-76
2022/05/25 09:48:38;;;;;;;13.70;9.27;;;;;;;;;;5053281;28;20057;-76
2022/05/25 09:51:04;;;;;;;11.25;9.13;;;;;;;;;;5053067;28;20029;-75
2022/05/25 09:53:39;;;;;;;15.20;8.32;;;;;;;;;;5053122;28;20104;-76
2022/05/25 09:56:09;;;;;;;10.30;7.50;;;;;;;;;;5052863;28;20475;-76
2022/05/25 09:58:40;;;;;;;11.55;7.40;;;;;;;;;;5051546;28;20067;-76
2022/05/25 10:01:14;;;;;;;15.40;7.80;;;;;;;;;;5052678;28;20028;-75
2022/05/25 10:03:41;;;;;;;9.65;7.85;;;;;;;;;;5052877;28;20103;-76
2022/05/25 10:06:27;;;;;;;10.98;7.32;;;;;;;;;;5052973;28;20047;-76
2022/05/25 10:09:12;;;;;;;10.27;7.85;;;;;;;;;;5052722;28;20509;-76
2022/05/25 10:11:48;;;;;;;11.57;7.88;;;;;;;;;;5051788;28;20135;-74
2022/05/25 10:14:17;;;;;;;15.70;7.45;;;;;;;;;;5052720;28;20017;-74
2022/05/25 10:16:43;;;;;;;10.05;5.78;;;;;;;;;;5052632;28;20048;-73
2022/05/25 10:19:12;;;;;;;7.53;5.00;;;;;;;;;;5052679;28;20056;-73
2022/05/25 10:21:39;;;;;;;9.05;5.50;;;;;;;;;;5052720;28;20025;-73
2022/05/25 10:24:17;;;;;;;7.93;5.25;;;;;;;;;;5052538;28;20455;-73
2022/05/25 10:26:49;;;;;;;6.35;4.50;;;;;;;;;;5052240;28;20017;-73
2022/05/25 10:36:45;;;;;;;8.68;4.57;;;;;;;;;;5052138;28;20025;-73
2022/05/25 10:37:55;;;;;;;5.57;2.95;;;;;;;;;;5052335;28;20036;-73
2022/05/25 10:40:22;;;;;;;5.55;2.40;;;;;;;;;;5052311;28;20025;-74
2022/05/25 10:42:50;;;;;;;6.18;1.95;;;;;;;;;;5052267;28;20033;-73
2022/05/25 10:45:20;;;;;;;4.78;1.50;;;;;;;;;;5052117;28;20055;-73
2022/05/25 10:47:54;;;;;;;3.03;1.30;;;;;;;;;;5052219;28;20371;-73
2022/05/25 10:50:32;;;;;;;3.08;0.90;;;;;;;;;;5051959;28;20021;-74
2022/05/25 10:53:16;;;;;;;1.98;0.90;;;;;;;;;;5052179;28;20019;-73
2022/05/25 10:55:47;;;;;;;4.03;0.82;;;;;;;;;;5050514;28;20580;-73
2022/05/25 10:58:13;;;;;;;2.20;0.90;;;;;;;;;;5052031;28;20448;-74
2022/05/25 11:00:52;;;;;;;2.75;1.27;;;;;;;;;;5051883;28;20048;-73
2022/05/25 11:03:27;;;;;;;4.10;0.80;;;;;;;;;;5051856;28;20379;-73
2022/05/25 11:05:53;;;;;;;4.28;1.10;;;;;;;;;;5050460;28;20028;-73
2022/05/25 11:08:22;;;;;;;2.50;1.05;;;;;;;;;;5050510;28;20116;-73
2022/05/25 11:11:11;;;;;;;4.78;1.10;;;;;;;;;;5051616;28;20045;-75
2022/05/25 11:13:46;;;;;;;7.18;1.02;;;;;;;;;;5051912;28;20045;-73
2022/05/25 11:16:30;;;;;;;2.67;1.17;;;;;;;;;;5051746;28;20332;-74
2022/05/25 11:19:16;;;;;;;3.50;1.52;;;;;;;;;;5051827;28;20021;-74
2022/05/25 11:21:51;;;;;;;5.43;1.13;;;;;;;;;;5051435;28;20033;-74
2022/05/25 11:24:18;;;;;;;1.70;0.68;;;;;;;;;;5051568;28;20033;-73
2022/05/25 11:27:03;;;;;;;2.67;0.75;;;;;;;;;;5051532;28;20021;-73
2022/05/25 11:29:44;;;;;;;1.75;0.85;;;;;;;;;;5051309;28;20041;-73
2022/05/25 11:32:19;;;;;;;1.60;0.80;;;;;;;;;;5051450;28;20032;-73
2022/05/25 11:34:45;;;;;;;1.73;0.70;;;;;;;;;;5051654;28;20017;-73
2022/05/25 11:37:27;;;;;;;1.80;0.70;;;;;;;;;;5051673;28;20017;-74
2022/05/25 11:39:56;;;;;;;3.17;0.90;;;;;;;;;;5051488;28;20034;-73
2022/05/25 11:42:31;;;;;;;1.60;0.73;;;;;;;;;;5051478;28;20100;-73
2022/05/25 11:45:17;;;;;;;2.70;1.05;;;;;;;;;;5051588;28;20036;-73
2022/05/25 11:48:00;;;;;;;8.23;0.95;;;;;;;;;;5051071;28;20044;-73
2022/05/25 11:50:32;;;;;;;3.15;1.02;;;;;;;;;;5051367;28;20118;-74
2022/05/25 11:52:58;;;;;;;1.85;0.70;;;;;;;;;;5051507;28;20108;-74
2022/05/25 11:55:54;;;;;;;2.45;0.88;;;;;;;;;;5051421;28;20017;-73
2022/05/25 11:58:43;;;;;;;4.18;0.80;;;;;;;;;;5046378;28;20091;-74
2022/05/25 12:01:28;;;;;;;2.83;0.80;;;;;;;;;;5028894;28;20092;-73
2022/05/25 12:04:12;;;;;;;1.67;0.70;;;;;;;;;;5029098;28;20030;-73
2022/05/25 12:06:57;;;;;;;2.80;1.02;;;;;;;;;;5029109;28;20038;-74
2022/05/25 12:09:28;;;;;;;3.83;0.98;;;;;;;;;;5028870;28;20041;-74
2022/05/25 12:11:59;;;;;;;5.38;1.30;;;;;;;;;;5028824;28;20127;-73
2022/05/25 12:14:34;;;;;;;3.95;0.98;;;;;;;;;;5029055;28;20047;-73
2022/05/25 12:17:07;;;;;;;2.10;0.90;;;;;;;;;;5028841;28;20499;-73
2022/05/25 12:19:35;;;;;;;4.15;0.98;;;;;;;;;;5028826;28;20044;-73
2022/05/25 12:22:14;;;;;;;6.35;1.15;;;;;;;;;;5029025;28;20410;-74
2022/05/25 12:24:42;;;;;;;4.28;1.00;;;;;;;;;;5028804;28;20501;-73
2022/05/25 12:27:10;;;;;;;2.20;1.00;;;;;;;;;;5010231;28;20038;-73
2022/05/25 12:29:41;;;;;;;1.98;0.82;;;;;;;;;;5008799;28;20089;-74
2022/05/25 12:32:08;;;;;;;1.35;0.90;;;;;;;;;;5008889;28;20042;-73
2022/05/25 12:34:40;;;;;;;3.92;0.90;;;;;;;;;;5010439;28;20165;-73
2022/05/25 12:37:07;;;;;;;3.63;0.90;;;;;;;;;;5014128;28;20384;-73
2022/05/25 12:39:48;;;;;;;2.28;1.00;;;;;;;;;;5034805;28;20022;-73
2022/05/25 12:42:24;;;;;;;7.18;1.23;;;;;;;;;;5034499;28;20525;-73
2022/05/25 12:50:51;;;;;;;4.68;1.40;;;;;;;;;;5031940;28;20038;-73
2022/05/25 12:53:21;;;;;;;9.05;1.30;;;;;;;;;;5031979;28;20091;-73
2022/05/25 12:56:05;;;;;;;2.33;0.88;;;;;;;;;;5031926;28;20048;-73
2022/05/25 12:58:43;;;;;;;3.60;1.10;;;;;;;;;;5035244;28;20025;-74
2022/05/25 13:01:15;;;;;;;3.50;1.27;;;;;;;;;;5051679;28;20160;-73
2022/05/25 13:03:46;;;;;;;3.10;1.20;;;;;;;;;;5051781;28;20033;-73
2022/05/25 13:06:13;;;;;;;5.68;1.05;;;;;;;;;;5051734;28;20549;-73
2022/05/25 13:08:58;;;;;;;2.05;1.02;;;;;;;;;;5051676;28;20475;-73
2022/05/25 13:11:43;;;;;;;6.40;1.13;;;;;;;;;;5031434;28;20515;-73
2022/05/25 13:14:16;;;;;;;2.55;1.08;;;;;;;;;;5031657;28;20129;-73
2022/05/25 13:16:42;;;;;;;3.45;1.00;;;;;;;;;;5031603;28;20498;-73
2022/05/25 13:19:17;;;;;;;2.75;1.08;;;;;;;;;;5031512;28;20051;-73
2022/05/25 13:22:04;;;;;;;5.72;1.00;;;;;;;;;;5031574;28;20060;-73
2022/05/25 13:24:32;;;;;;;2.30;1.13;;;;;;;;;;5015315;28;20045;-73
2022/05/25 13:27:27;;;;;;;5.97;1.20;;;;;;;;;;5034256;28;20045;-73
2022/05/25 13:30:12;;;;;;;1.52;0.90;;;;;;;;;;4991974;28;20089;-73
2022/05/25 13:32:59;;;;;;;2.05;0.90;;;;;;;;;;4991875;28;20030;-73
2022/05/25 13:35:25;;;;;;;4.45;1.40;;;;;;;;;;4992089;28;20032;-73
2022/05/25 13:37:55;;;;;;;3.70;1.10;;;;;;;;;;4991988;28;20038;-73
2022/05/25 13:40:22;;;;;;;7.72;1.10;;;;;;;;;;4991940;28;20062;-73
2022/05/25 13:42:49;;;;;;;4.43;1.10;;;;;;;;;;4991773;28;20041;-73
2022/05/25 13:45:21;;;;;;;5.53;1.58;;;;;;;;;;4991615;28;20029;-73
2022/05/25 13:47:57;;;;;;;3.95;1.23;;;;;;;;;;4991706;28;20048;-73
2022/05/25 13:50:40;;;;;;;3.63;1.30;;;;;;;;;;4991533;28;20026;-73
2022/05/25 13:53:09;;;;;;;3.53;1.17;;;;;;;;;;4991778;28;20076;-73
2022/05/25 13:55:36;;;;;;;4.88;1.23;;;;;;;;;;4991605;28;20041;-73
2022/05/25 13:58:08;;;;;;;5.22;1.40;;;;;;;;;;4991609;28;20030;-74
2022/05/25 14:00:47;;;;;;;2.10;1.00;;;;;;;;;;5010959;28;20057;-73
2022/05/25 14:03:21;;;;;;;3.30;1.30;;;;;;;;;;4994541;28;20021;-73
2022/05/25 14:05:53;;;;;;;5.75;1.30;;;;;;;;;;5023419;28;20032;-73
2022/05/25 14:08:19;;;;;;;4.40;1.17;;;;;;;;;;5053033;28;20025;-73
2022/05/25 14:10:58;;;;;;;3.05;1.10;;;;;;;;;;5052592;28;20398;-73
2022/05/25 14:13:24;;;;;;;4.47;1.40;;;;;;;;;;5052962;28;20021;-73
2022/05/25 14:15:54;;;;;;;3.83;0.98;;;;;;;;;;5052634;28;20585;-73
2022/05/25 14:18:20;;;;;;;2.90;0.98;;;;;;;;;;5052781;28;20687;-73
2022/05/25 14:20:46;;;;;;;5.78;1.00;;;;;;;;;;5052600;28;20109;-73
2022/05/25 14:23:12;;;;;;;5.47;0.70;;;;;;;;;;5052779;28;20434;-73
2022/05/25 14:25:40;;;;;;;2.95;0.70;;;;;;;;;;5052337;28;20029;-73
2022/05/25 14:28:06;;;;;;;2.08;0.60;;;;;;;;;;5052607;28;20031;-73
2022/05/25 14:30:35;;;;;;;4.68;0.70;;;;;;;;;;5052217;28;20820;-73
2022/05/25 14:33:08;;;;;;;5.28;1.00;;;;;;;;;;5052540;28;20101;-73
2022/05/25 14:35:36;;;;;;;4.07;0.90;;;;;;;;;;5052428;28;20024;-73
2022/05/25 14:38:03;;;;;;;3.58;0.90;;;;;;;;;;5052398;28;20025;-73
2022/05/25 14:40:31;;;;;;;8.68;1.05;;;;;;;;;;5052397;28;20043;-73
2022/05/25 14:42:57;;;;;;;3.45;0.88;;;;;;;;;;5052351;28;20356;-73
2022/05/25 14:45:24;;;;;;;6.30;1.23;;;;;;;;;;5052248;28;20569;-73
2022/05/25 14:47:50;;;;;;;3.60;1.00;;;;;;;;;;5052154;28;20056;-73
2022/05/25 14:50:22;;;;;;;6.18;1.30;;;;;;;;;;5052098;28;20427;-73
2022/05/25 14:52:57;;;;;;;5.95;1.55;;;;;;;;;;5052176;28;20025;-73
2022/05/25 14:55:26;;;;;;;6.13;1.10;;;;;;;;;;5052009;28;20021;-73
2022/05/25 14:58:04;;;;;;;4.70;1.50;;;;;;;;;;5051431;28;20021;-73
2022/05/25 15:00:30;;;;;;;3.53;1.20;;;;;;;;;;5051650;28;20025;-73
2022/05/25 15:03:01;;;;;;;6.60;1.30;;;;;;;;;;5052000;28;20028;-73
2022/05/25 15:05:29;;;;;;;5.60;1.20;;;;;;;;;;5051907;28;20089;-73
2022/05/25 15:07:56;;;;;;;11.05;2.17;;;;;;;;;;5051895;28;20029;-73
2022/05/25 15:10:30;;;;;;;12.95;1.50;;;;;;;;;;5051765;28;20369;-73
2022/05/25 15:12:56;;;;;;;4.57;1.27;;;;;;;;;;5051997;28;20104;-73
2022/05/25 15:18:29;;;;;;;3.72;0.90;;;;;;;;;;5029382;28;20060;-73
2022/05/25 15:20:55;;;;;;;5.05;1.55;;;;;;;;;;5029414;28;20041;-73
2022/05/25 15:23:30;;;;;;;4.13;1.00;;;;;;;;;;5029482;28;20479;-73